Punta Cana, Dominican Republic
Current Conditions -  °F | °C
As of 1:00 PM on Wednesday 26 Nov 2014 (Local Time) from MDPC Reporting Station
Broken Clouds Broken Clouds  
Wind Chill: 82°   Ceiling: 8700
Heat Index: 88°   Visibility: 6mi
Dew Point: 73°   Wind: 12mph
Humidity: 74%   Direction: 120°ESE
Pressure: 30"   Gusts: NA
Location:  18.57°N, 68.36°W
Report Text: MDPC 261700Z 12010KT 060V140 9999 FEW020 BKN087 28/23 Q1016
Loading
Personal Weather Stations






























Interactive Weather Map New forecast layout! Learn more

10-Day Weather Forecast

Advertisements
Track Severe Weather on mobile